createdAt,value
2023-02-11T00:01:09.217Z,41.82
2023-02-11T00:04:00.031Z,41.91
2023-02-11T00:06:48.658Z,42.08
2023-02-11T00:09:37.243Z,41.95
2023-02-11T00:12:26.000Z,41.69
2023-02-11T00:15:14.624Z,41.73
2023-02-11T00:18:03.206Z,41.72
2023-02-11T00:20:53.197Z,41.81
2023-02-11T00:23:41.952Z,41.56
2023-02-11T00:26:32.211Z,41.75
2023-02-11T00:29:20.851Z,41.43
2023-02-11T00:32:09.584Z,41.53
2023-02-11T00:34:58.228Z,41.36
2023-02-11T00:37:48.252Z,41.50
2023-02-11T00:40:37.040Z,41.46
2023-02-11T00:43:25.685Z,41.52
2023-02-11T00:46:15.098Z,41.58
2023-02-11T00:49:03.740Z,41.71
2023-02-11T00:51:52.401Z,41.74
2023-02-11T00:54:42.534Z,41.42
2023-02-11T00:57:31.129Z,41.21
2023-02-11T01:00:20.226Z,41.56
2023-02-11T01:03:08.906Z,41.51
2023-02-11T01:05:57.801Z,41.25
2023-02-11T01:08:46.769Z,41.09
2023-02-11T01:11:36.804Z,41.27
2023-02-11T01:14:25.531Z,41.25
2023-02-11T01:17:14.244Z,41.23
2023-02-11T01:20:04.902Z,41.30
2023-02-11T01:22:53.541Z,41.41
2023-02-11T01:25:42.129Z,41.09
2023-02-11T01:28:32.664Z,41.25
2023-02-11T01:31:21.393Z,41.48
2023-02-11T01:34:10.085Z,41.50
2023-02-11T01:36:59.828Z,41.12
2023-02-11T01:39:48.471Z,41.20
2023-02-11T01:42:37.174Z,40.98
2023-02-11T01:45:57.067Z,41.08
2023-02-11T01:48:47.828Z,41.18
2023-02-11T01:51:40.519Z,40.73
2023-02-11T01:54:49.786Z,40.80
2023-02-11T01:57:40.435Z,40.96
2023-02-11T02:00:32.781Z,41.14
2023-02-11T02:03:24.295Z,41.31
2023-02-11T02:06:18.018Z,41.09
2023-02-11T02:09:10.199Z,40.94
2023-02-11T02:11:58.822Z,41.27
2023-02-11T02:14:47.459Z,41.14
2023-02-11T02:17:43.049Z,41.16
2023-02-11T02:21:15.735Z,41.13
2023-02-11T02:24:24.558Z,40.97
2023-02-11T02:27:35.957Z,41.16
2023-02-11T02:30:50.282Z,41.25
2023-02-11T02:33:47.436Z,41.07
2023-02-11T02:36:39.895Z,40.81
2023-02-11T02:39:31.282Z,40.54
2023-02-11T02:42:20.354Z,40.99
2023-02-11T02:45:10.142Z,41.10
2023-02-11T02:47:58.795Z,40.75
2023-02-11T02:50:48.958Z,40.38
2023-02-11T02:53:46.664Z,40.62
2023-02-11T02:56:41.866Z,40.61
2023-02-11T02:59:40.985Z,40.86
2023-02-11T03:02:33.651Z,40.93
2023-02-11T03:05:26.692Z,40.78
2023-02-11T03:08:20.320Z,40.92
2023-02-11T03:11:10.223Z,41.31
2023-02-11T03:13:59.284Z,41.72
2023-02-11T03:16:49.531Z,41.75
2023-02-11T03:19:40.147Z,41.91
2023-02-11T03:22:34.156Z,42.17
2023-02-11T03:25:28.614Z,42.32
2023-02-11T03:28:19.933Z,42.63
2023-02-11T03:31:13.094Z,42.81
2023-02-11T03:34:05.520Z,42.97
2023-02-11T03:36:57.007Z,42.84
2023-02-11T03:39:49.440Z,42.98
2023-02-11T03:42:42.948Z,42.88
2023-02-11T03:45:32.058Z,43.11
2023-02-11T03:48:24.384Z,43.49
2023-02-11T03:51:14.210Z,43.29
2023-02-11T03:54:06.659Z,43.51
2023-02-11T03:56:57.859Z,43.27
2023-02-11T03:59:53.994Z,43.42
2023-02-11T04:02:43.282Z,43.89
2023-02-11T04:05:31.916Z,43.96
2023-02-11T04:08:20.552Z,43.45
2023-02-11T04:11:09.167Z,43.84
2023-02-11T04:13:57.755Z,43.53
2023-02-11T04:16:47.744Z,43.74
2023-02-11T04:19:36.403Z,43.94
2023-02-11T04:22:25.080Z,44.27
2023-02-11T04:25:13.706Z,43.91
2023-02-11T04:28:02.412Z,44.35
2023-02-11T04:30:51.672Z,44.13
2023-02-11T04:33:41.641Z,44.33
2023-02-11T04:36:30.334Z,44.20
2023-02-11T04:39:19.033Z,44.26
2023-02-11T04:42:07.821Z,44.16
2023-02-11T04:44:56.439Z,44.49
2023-02-11T04:47:45.129Z,44.63
2023-02-11T04:50:35.154Z,44.64
2023-02-11T04:53:23.953Z,44.37
2023-02-11T04:56:12.622Z,44.59
2023-02-11T04:59:01.403Z,44.56
2023-02-11T05:01:50.637Z,44.39
2023-02-11T05:04:39.219Z,44.28
2023-02-11T05:07:29.267Z,44.92
2023-02-11T05:10:18.200Z,44.49
2023-02-11T05:13:07.175Z,44.90
2023-02-11T05:15:55.916Z,44.99
2023-02-11T05:18:46.174Z,44.62
2023-02-11T05:21:34.876Z,44.77
2023-02-11T05:24:25.038Z,44.55
2023-02-11T05:27:13.768Z,44.58
2023-02-11T05:30:02.916Z,44.91
2023-02-11T05:32:51.648Z,44.83
2023-02-11T05:35:40.408Z,44.91
2023-02-11T05:38:29.358Z,44.88
2023-02-11T05:41:19.428Z,45.13
2023-02-11T05:44:08.092Z,44.96
2023-02-11T05:46:56.870Z,45.05
2023-02-11T05:49:45.798Z,45.10
2023-02-11T05:52:34.489Z,45.13
2023-02-11T05:55:23.167Z,45.34
2023-02-11T05:58:13.602Z,45.50
2023-02-11T06:01:02.224Z,45.11
2023-02-11T06:03:51.378Z,45.30
2023-02-11T06:06:40.107Z,45.08
2023-02-11T06:09:28.873Z,45.43
2023-02-11T06:12:17.506Z,45.16
2023-02-11T06:15:08.470Z,45.36
2023-02-11T06:17:57.380Z,45.23
2023-02-11T06:20:45.950Z,45.32
2023-02-11T06:23:34.520Z,45.23
2023-02-11T06:26:24.926Z,45.27
2023-02-11T06:29:13.995Z,45.40
2023-02-11T06:32:04.469Z,45.38
2023-02-11T06:34:53.090Z,45.41
2023-02-11T06:37:41.952Z,45.69
2023-02-11T06:40:30.664Z,45.65
2023-02-11T06:43:19.291Z,45.80
2023-02-11T06:46:08.132Z,45.65
2023-02-11T06:48:58.217Z,45.71
2023-02-11T06:51:46.824Z,45.52
2023-02-11T06:54:35.472Z,45.32
2023-02-11T06:57:24.080Z,45.79
2023-02-11T07:00:14.165Z,45.41
2023-02-11T07:03:02.931Z,45.42
2023-02-11T07:05:53.120Z,45.39
2023-02-11T07:08:42.955Z,45.61
2023-02-11T07:11:32.448Z,45.88
2023-02-11T07:14:21.105Z,45.69
2023-02-11T07:17:10.180Z,45.46
2023-02-11T07:19:58.833Z,45.64
2023-02-11T07:22:48.788Z,45.78
2023-02-11T07:25:38.033Z,45.92
2023-02-11T07:28:26.700Z,45.43
2023-02-11T07:31:16.563Z,45.50
2023-02-11T07:34:05.277Z,45.33
2023-02-11T07:36:53.926Z,45.73
2023-02-11T07:39:43.966Z,45.57
2023-02-11T07:42:32.664Z,45.60
2023-02-11T07:45:21.271Z,45.91
2023-02-11T07:48:09.947Z,45.92
2023-02-11T07:51:07.127Z,46.03
2023-02-11T07:53:56.646Z,45.92
2023-02-11T07:56:46.722Z,46.14
2023-02-11T07:59:35.555Z,46.06
2023-02-11T08:02:24.222Z,45.68
2023-02-11T08:05:12.916Z,45.77
2023-02-11T08:08:01.579Z,46.08
2023-02-11T08:10:50.429Z,46.09
2023-02-11T08:13:40.746Z,45.97
2023-02-11T08:16:31.247Z,45.87
2023-02-11T08:19:19.980Z,45.98
2023-02-11T08:22:08.622Z,45.72
2023-02-11T08:24:58.409Z,45.66
2023-02-11T08:27:47.105Z,46.27
2023-02-11T08:30:37.145Z,46.02
2023-02-11T08:33:25.832Z,46.01
2023-02-11T08:36:16.323Z,46.47
2023-02-11T08:39:22.475Z,46.11
2023-02-11T08:42:11.155Z,46.21
2023-02-11T08:44:59.796Z,46.18
2023-02-11T08:47:49.749Z,46.35
2023-02-11T08:50:40.697Z,46.13
2023-02-11T08:53:29.308Z,46.25
2023-02-11T08:56:18.939Z,46.04
2023-02-11T08:59:09.100Z,46.27
2023-02-11T09:01:57.981Z,45.92
2023-02-11T09:04:47.988Z,45.90
2023-02-11T09:07:36.647Z,45.42
2023-02-11T09:10:25.301Z,45.28
2023-02-11T09:13:14.073Z,44.80
2023-02-11T09:16:04.328Z,44.62
2023-02-11T09:18:53.255Z,44.02
2023-02-11T09:21:43.276Z,44.15
2023-02-11T09:24:31.938Z,44.16
2023-02-11T09:27:20.585Z,43.98
2023-02-11T09:30:10.115Z,44.37
2023-02-11T09:32:58.808Z,43.86
2023-02-11T09:35:47.480Z,43.62
2023-02-11T09:38:38.277Z,43.52
2023-02-11T09:41:39.122Z,43.85
2023-02-11T09:44:29.444Z,43.35
2023-02-11T09:47:26.573Z,44.05
2023-02-11T09:50:18.268Z,43.67
2023-02-11T09:53:11.783Z,43.98
2023-02-11T09:56:03.542Z,44.26
2023-02-11T09:58:52.260Z,43.99
2023-02-11T10:01:44.051Z,43.72
2023-02-11T10:04:43.802Z,43.29
2023-02-11T10:07:38.455Z,43.25
2023-02-11T10:10:40.671Z,43.43
2023-02-11T10:13:48.346Z,43.19
2023-02-11T10:16:49.326Z,43.73
2023-02-11T10:19:47.778Z,43.74
2023-02-11T10:22:39.770Z,43.66
2023-02-11T10:25:30.251Z,43.42
2023-02-11T10:28:20.607Z,43.26
2023-02-11T10:31:18.684Z,42.79
2023-02-11T10:34:09.187Z,42.81
2023-02-11T10:36:57.843Z,42.49
2023-02-11T10:39:46.449Z,43.16
2023-02-11T10:42:36.187Z,43.54
2023-02-11T10:45:29.900Z,43.65
2023-02-11T10:48:43.084Z,43.97
2023-02-11T10:51:34.416Z,43.56
2023-02-11T10:54:24.369Z,43.99
2023-02-11T10:57:20.839Z,43.92
2023-02-11T11:00:23.072Z,43.90
2023-02-11T11:03:19.538Z,43.68
2023-02-11T11:06:11.111Z,43.59
2023-02-11T11:09:00.050Z,43.67
2023-02-11T11:11:53.601Z,43.53
2023-02-11T11:14:42.225Z,43.33
2023-02-11T11:17:31.444Z,43.28
2023-02-11T11:20:28.461Z,43.26
2023-02-11T11:23:20.798Z,43.34
2023-02-11T11:26:11.911Z,43.26
2023-02-11T11:29:03.755Z,43.21
2023-02-11T11:31:54.268Z,43.27
2023-02-11T11:34:45.011Z,43.34
2023-02-11T11:37:35.021Z,43.18
2023-02-11T11:40:27.648Z,42.95
2023-02-11T11:43:23.057Z,43.00
2023-02-11T11:46:12.273Z,43.07
2023-02-11T11:49:06.938Z,43.33
2023-02-11T11:52:00.477Z,42.96
2023-02-11T11:54:53.812Z,42.74
2023-02-11T11:57:43.981Z,42.62
2023-02-11T12:00:37.749Z,42.85
2023-02-11T12:03:49.584Z,42.76
2023-02-11T12:06:44.096Z,42.36
2023-02-11T12:09:38.100Z,42.61
2023-02-11T12:12:36.747Z,42.63
2023-02-11T12:15:34.293Z,42.53
2023-02-11T12:18:38.677Z,42.10
2023-02-11T12:21:36.933Z,42.36
2023-02-11T12:24:39.394Z,42.52
2023-02-11T12:27:41.051Z,42.25
2023-02-11T12:30:51.984Z,42.31
2023-02-11T12:34:01.551Z,42.26
2023-02-11T12:37:02.974Z,42.34
2023-02-11T12:39:53.082Z,42.35
2023-02-11T12:43:10.232Z,42.09
2023-02-11T12:46:41.277Z,42.02
2023-02-11T12:49:40.783Z,42.31
2023-02-11T12:52:37.580Z,42.24
2023-02-11T12:55:28.596Z,42.09
2023-02-11T12:58:21.752Z,42.40
2023-02-11T13:01:14.328Z,42.40
2023-02-11T13:04:09.246Z,42.54
2023-02-11T13:07:02.284Z,41.72
2023-02-11T13:09:53.373Z,42.19
2023-02-11T13:13:03.184Z,42.20
2023-02-11T13:15:53.877Z,42.04
2023-02-11T13:18:49.452Z,42.09
2023-02-11T13:22:08.999Z,42.42
2023-02-11T13:25:01.179Z,42.02
2023-02-11T13:27:58.524Z,42.24
2023-02-11T13:30:52.232Z,42.00
2023-02-11T13:33:43.242Z,42.00
2023-02-11T13:36:34.050Z,41.83
2023-02-11T13:39:24.378Z,41.96
2023-02-11T13:42:18.056Z,41.58
2023-02-11T13:45:18.945Z,42.04
2023-02-11T13:48:10.064Z,41.56
2023-02-11T13:51:00.194Z,41.67
2023-02-11T13:53:51.465Z,41.57
2023-02-11T13:56:44.172Z,41.82
2023-02-11T13:59:49.914Z,42.06
2023-02-11T14:03:01.721Z,41.81
2023-02-11T14:06:40.749Z,41.98
2023-02-11T14:09:38.151Z,39.14
2023-02-11T14:12:33.798Z,38.26
2023-02-11T14:15:30.315Z,39.65
2023-02-11T14:18:41.270Z,40.23
2023-02-11T14:21:36.406Z,40.95
2023-02-11T14:24:51.004Z,41.38
2023-02-11T14:27:46.426Z,41.96
2023-02-11T14:30:48.224Z,42.15
2023-02-11T14:33:57.551Z,42.53
2023-02-11T14:36:59.790Z,42.36
2023-02-11T14:39:58.307Z,42.84
2023-02-11T14:42:48.462Z,42.47
2023-02-11T14:45:38.820Z,42.69
2023-02-11T14:48:30.485Z,42.82
2023-02-11T14:51:23.291Z,43.50
2023-02-11T14:54:16.982Z,43.53
2023-02-11T14:57:11.286Z,43.31
2023-02-11T15:00:03.190Z,43.28
2023-02-11T15:02:52.106Z,43.10
2023-02-11T15:05:41.153Z,43.26
2023-02-11T15:08:30.989Z,43.41
2023-02-11T15:11:22.249Z,43.26
2023-02-11T15:14:16.752Z,42.94
2023-02-11T15:17:09.941Z,42.11
2023-02-11T15:20:01.283Z,42.26
2023-02-11T15:22:52.881Z,41.75
2023-02-11T15:25:46.063Z,41.77
2023-02-11T15:28:36.780Z,42.01
2023-02-11T15:31:27.653Z,41.60
2023-02-11T15:34:35.238Z,41.49
2023-02-11T15:37:26.225Z,42.03
2023-02-11T15:40:19.657Z,41.78
2023-02-11T15:43:09.928Z,41.97
2023-02-11T15:46:01.794Z,42.09
2023-02-11T15:48:52.253Z,41.75
2023-02-11T15:51:46.870Z,41.93
2023-02-11T15:54:36.101Z,41.92
2023-02-11T15:57:25.160Z,42.03
2023-02-11T16:00:18.807Z,42.10
2023-02-11T16:03:07.515Z,42.22
2023-02-11T16:05:56.656Z,42.28
2023-02-11T16:08:58.089Z,42.51
2023-02-11T16:11:58.136Z,42.10
2023-02-11T16:14:46.991Z,42.02
2023-02-11T16:17:35.994Z,42.24
2023-02-11T16:20:24.944Z,42.60
2023-02-11T16:23:21.957Z,42.64
2023-02-11T16:26:24.163Z,43.05
2023-02-11T16:29:15.471Z,42.71
2023-02-11T16:32:10.803Z,42.87
2023-02-11T16:35:02.140Z,42.38
2023-02-11T16:37:51.522Z,42.29
2023-02-11T16:40:40.737Z,42.36
2023-02-11T16:43:33.410Z,42.59
2023-02-11T16:46:22.207Z,43.03
2023-02-11T16:49:13.337Z,43.07
2023-02-11T16:52:03.287Z,42.98
2023-02-11T16:54:52.359Z,42.80
2023-02-11T16:57:41.351Z,43.30
2023-02-11T17:00:31.473Z,43.07
2023-02-11T17:03:28.209Z,43.23
2023-02-11T17:10:02.857Z,42.94
2023-02-11T17:12:53.864Z,42.85
2023-02-11T17:15:44.905Z,42.93
2023-02-11T17:18:36.344Z,43.06
2023-02-11T17:21:29.828Z,43.04
2023-02-11T17:24:21.307Z,43.10
2023-02-11T17:27:11.906Z,43.83
2023-02-11T17:30:01.081Z,44.13
2023-02-11T17:32:51.576Z,44.81
2023-02-11T17:35:42.026Z,44.66
2023-02-11T17:38:30.641Z,44.96
2023-02-11T17:41:19.776Z,45.04
2023-02-11T17:44:09.479Z,44.88
2023-02-11T17:46:58.128Z,44.93
2023-02-11T17:49:48.185Z,44.87
2023-02-11T17:52:37.840Z,45.14
2023-02-11T17:55:26.520Z,46.03
2023-02-11T17:58:15.895Z,45.96
2023-02-11T18:01:05.282Z,45.80
2023-02-11T18:04:01.266Z,46.30
2023-02-11T18:06:53.917Z,46.25
2023-02-11T18:09:45.339Z,45.88
2023-02-11T18:12:35.443Z,46.31
2023-02-11T18:15:26.280Z,46.32
2023-02-11T18:18:18.279Z,45.86
2023-02-11T18:21:09.698Z,45.75
2023-02-11T18:24:06.535Z,45.70
2023-02-11T18:26:56.626Z,45.22
2023-02-11T18:29:47.499Z,45.32
2023-02-11T18:32:40.195Z,44.78
2023-02-11T18:35:30.291Z,44.79
2023-02-11T18:38:20.409Z,44.69
2023-02-11T18:41:13.175Z,44.54
2023-02-11T18:44:05.396Z,44.48
2023-02-11T18:46:56.462Z,44.26
2023-02-11T18:49:46.434Z,44.33
2023-02-11T18:52:37.060Z,44.13
2023-02-11T18:55:27.580Z,44.47
2023-02-11T18:58:18.355Z,44.41
2023-02-11T19:01:13.889Z,44.55
2023-02-11T19:04:04.743Z,44.49
2023-02-11T19:06:54.081Z,44.33
2023-02-11T19:09:43.253Z,44.02
2023-02-11T19:12:33.194Z,43.97
2023-02-11T19:15:23.874Z,44.12
2023-02-11T19:18:13.295Z,43.96
2023-02-11T19:21:02.681Z,44.01
2023-02-11T19:23:52.194Z,43.90
2023-02-11T19:26:41.568Z,43.99
2023-02-11T19:29:32.187Z,43.89
2023-02-11T19:32:23.105Z,43.62
2023-02-11T19:35:12.779Z,43.68
2023-02-11T19:38:02.125Z,43.50
2023-02-11T19:40:57.694Z,43.43
2023-02-11T19:43:53.667Z,43.53
2023-02-11T19:46:43.674Z,43.53
2023-02-11T19:49:34.585Z,44.07
2023-02-11T19:52:23.871Z,44.47
2023-02-11T19:55:13.413Z,44.17
2023-02-11T19:58:02.600Z,44.39
2023-02-11T20:00:51.267Z,44.38
2023-02-11T20:03:42.498Z,44.30
2023-02-11T20:06:34.009Z,43.99
2023-02-11T20:09:23.395Z,44.21
2023-02-11T20:12:13.118Z,44.21
2023-02-11T20:15:02.751Z,44.42
2023-02-11T20:17:52.006Z,44.27
2023-02-11T20:20:41.562Z,44.11
2023-02-11T20:23:33.076Z,43.76
2023-02-11T20:26:26.400Z,43.58
2023-02-11T20:29:15.706Z,43.44
2023-02-11T20:32:05.093Z,43.70
2023-02-11T20:34:54.486Z,43.84
2023-02-11T20:37:44.449Z,43.85
2023-02-11T20:40:35.282Z,44.03
2023-02-11T20:43:24.846Z,43.77
2023-02-11T20:46:14.901Z,43.83
2023-02-11T20:49:04.147Z,43.96
2023-02-11T20:51:54.117Z,43.59
2023-02-11T20:54:43.597Z,43.98
2023-02-11T20:57:35.253Z,43.75
2023-02-11T21:00:24.598Z,43.84
2023-02-11T21:03:14.014Z,44.00
2023-02-11T21:06:03.673Z,44.06
2023-02-11T21:08:53.167Z,43.82
2023-02-11T21:11:42.882Z,44.06
2023-02-11T21:14:34.372Z,43.93
2023-02-11T21:17:26.380Z,43.89
2023-02-11T21:20:15.887Z,44.19
2023-02-11T21:23:05.052Z,43.93
2023-02-11T21:25:56.442Z,44.24
2023-02-11T21:28:48.784Z,44.15
2023-02-11T21:31:40.293Z,44.01
2023-02-11T21:34:29.888Z,44.12
2023-02-11T21:37:19.148Z,44.06
2023-02-11T21:40:09.761Z,43.82
2023-02-11T21:42:59.315Z,43.98
2023-02-11T21:45:49.977Z,44.22
2023-02-11T21:48:40.770Z,43.77
2023-02-11T21:51:30.221Z,43.85
2023-02-11T21:54:20.250Z,44.26
2023-02-11T21:57:09.751Z,44.50
2023-02-11T21:59:59.006Z,44.19
2023-02-11T22:02:49.898Z,44.18
2023-02-11T22:05:43.395Z,43.94
2023-02-11T22:08:33.073Z,44.08
2023-02-11T22:11:21.919Z,44.27
2023-02-11T22:14:10.684Z,44.44
2023-02-11T22:16:59.395Z,44.42
2023-02-11T22:19:48.245Z,44.38
2023-02-11T22:22:38.303Z,44.14
2023-02-11T22:25:27.155Z,44.00
2023-02-11T22:28:15.940Z,44.45
2023-02-11T22:31:04.923Z,44.23
2023-02-11T22:33:54.084Z,44.39
2023-02-11T22:36:45.414Z,44.37
2023-02-11T22:39:35.751Z,44.11
2023-02-11T22:42:24.791Z,44.26
2023-02-11T22:45:13.515Z,43.70
2023-02-11T22:48:04.606Z,44.32
2023-02-11T22:50:53.266Z,44.06
2023-02-11T22:53:43.672Z,43.99
2023-02-11T22:56:35.040Z,44.17
2023-02-11T22:59:23.896Z,44.07
2023-02-11T23:02:12.557Z,44.26
2023-02-11T23:05:01.391Z,44.18
2023-02-11T23:07:50.482Z,43.81
2023-02-11T23:10:41.647Z,43.70
2023-02-11T23:13:32.429Z,43.41
2023-02-11T23:16:24.210Z,43.05
2023-02-11T23:19:13.019Z,43.04
2023-02-11T23:22:03.412Z,42.87
2023-02-11T23:24:52.066Z,43.59
2023-02-11T23:27:40.673Z,44.56
2023-02-11T23:30:30.993Z,44.91
2023-02-11T23:33:19.658Z,44.42
2023-02-11T23:36:09.125Z,44.70
2023-02-11T23:38:57.754Z,45.40
2023-02-11T23:41:46.838Z,45.22
2023-02-11T23:44:35.604Z,45.92
2023-02-11T23:47:25.649Z,45.67
2023-02-11T23:50:14.345Z,45.91
2023-02-11T23:53:05.333Z,45.71
2023-02-11T23:55:54.271Z,45.57
2023-02-11T23:58:44.756Z,45.70
